createdAt,value
2022-11-05T00:43:34.553Z,15.37
2022-11-05T00:46:09.153Z,15.42
2022-11-05T00:48:57.031Z,15.45
2022-11-05T00:51:29.499Z,15.41
2022-11-05T00:53:59.569Z,15.47
2022-11-05T00:56:34.249Z,15.40
2022-11-05T00:59:05.592Z,15.51
2022-11-05T01:07:07.385Z,15.52
2022-11-05T01:22:16.524Z,15.45
2022-11-05T04:19:06.753Z,15.71
2022-11-05T05:08:30.532Z,15.77
2022-11-05T05:41:47.666Z,15.76
2022-11-05T06:42:45.287Z,15.97
2022-11-05T07:05:47.909Z,15.97
2022-11-05T07:08:36.145Z,15.96
2022-11-05T07:11:16.048Z,15.85
2022-11-05T07:14:01.301Z,15.88
2022-11-05T07:16:42.965Z,15.95
2022-11-05T07:19:13.712Z,15.92
2022-11-05T07:21:45.427Z,15.86
2022-11-05T07:24:16.329Z,15.92
2022-11-05T07:29:34.556Z,15.92
2022-11-05T07:32:24.925Z,15.94
2022-11-05T07:34:54.074Z,15.94
2022-11-05T07:37:26.537Z,15.92
2022-11-05T07:40:02.241Z,15.92
2022-11-05T07:42:31.265Z,15.91
2022-11-05T07:45:10.651Z,15.90
2022-11-05T07:47:41.996Z,15.82
2022-11-05T07:50:18.345Z,15.91
2022-11-05T07:52:52.153Z,15.94
2022-11-05T07:55:27.415Z,15.97
2022-11-05T07:57:57.226Z,16.01
2022-11-05T08:00:33.590Z,16.02
2022-11-05T08:03:09.571Z,15.98
2022-11-05T08:05:40.386Z,16.07
2022-11-05T08:08:10.944Z,16.08
2022-11-05T08:10:43.517Z,16.10
2022-11-05T08:13:14.129Z,16.10
2022-11-05T08:15:50.305Z,16.11
2022-11-05T08:18:22.527Z,16.11
2022-11-05T08:20:54.217Z,16.19
2022-11-05T08:23:27.231Z,16.21
2022-11-05T08:25:57.739Z,16.25
2022-11-05T08:28:31.063Z,16.25
2022-11-05T08:31:01.060Z,16.21
2022-11-05T08:33:33.387Z,16.16
2022-11-05T08:36:04.594Z,16.10
2022-11-05T08:38:40.685Z,16.17
2022-11-05T08:41:09.218Z,16.22
2022-11-05T08:43:38.267Z,16.29
2022-11-05T08:46:10.447Z,16.30
2022-11-05T08:48:41.690Z,16.30
2022-11-05T08:51:15.490Z,16.31
2022-11-05T08:53:48.841Z,16.31
2022-11-05T08:56:22.616Z,16.29
2022-11-05T08:58:51.718Z,16.32
2022-11-05T09:01:25.550Z,16.33
2022-11-05T09:03:55.367Z,16.29
2022-11-05T09:06:24.489Z,16.43
2022-11-05T09:09:02.093Z,16.47
2022-11-05T09:12:10.023Z,16.47
2022-11-05T09:14:31.827Z,16.49
2022-11-05T09:17:03.104Z,16.55
2022-11-05T11:45:37.742Z,17.22
2022-11-05T11:48:06.422Z,17.31
2022-11-05T11:50:37.098Z,17.33
2022-11-05T11:53:36.131Z,17.35
2022-11-05T12:11:55.811Z,17.61
2022-11-05T14:23:21.260Z,18.50
2022-11-05T14:27:32.706Z,18.36
2022-11-05T16:24:56.134Z,17.69
2022-11-05T17:10:33.919Z,17.07
2022-11-05T17:27:26.136Z,16.87
2022-11-05T17:47:38.366Z,16.74
2022-11-05T19:17:29.845Z,15.09
2022-11-05T19:45:47.659Z,14.94
2022-11-05T21:46:23.074Z,13.89
2022-11-05T22:29:06.591Z,13.38
2022-11-05T22:36:20.831Z,13.53
2022-11-05T23:24:33.968Z,12.86
